TimeCDT,TemperatureF,Dew PointF,Humidity,Sea Level PressureIn,VisibilityMPH,Wind Direction,Wind SpeedMPH,Gust SpeedMPH,PrecipitationIn,Events,Conditions,WindDirDegrees,DateUTC
12:53 AM,71.1,66.0,84,29.91,10.0,WSW,18.4,24.2,0.03,Rain,Light Rain,250,2013-06-16 05:53:00
1:53 AM,69.1,66.0,90,29.89,10.0,West,10.4,-,0.00,,Clear,270,2013-06-16 06:53:00
2:53 AM,68.0,64.9,90,29.88,10.0,West,10.4,-,N/A,,Clear,280,2013-06-16 07:53:00
3:53 AM,66.9,64.0,90,29.89,10.0,WSW,5.8,-,N/A,,Clear,240,2013-06-16 08:53:00
4:53 AM,66.9,63.0,87,29.90,10.0,SW,6.9,-,N/A,,Overcast,220,2013-06-16 09:53:00
5:53 AM,68.0,63.0,84,29.91,10.0,WSW,11.5,-,N/A,,Overcast,240,2013-06-16 10:53:00
6:53 AM,69.1,64.0,84,29.91,10.0,WSW,8.1,-,N/A,,Clear,240,2013-06-16 11:53:00
7:53 AM,71.1,64.0,78,29.92,10.0,West,10.4,-,N/A,,Partly Cloudy,260,2013-06-16 12:53:00
8:53 AM,73.0,64.9,76,29.93,10.0,West,10.4,-,N/A,,Partly Cloudy,280,2013-06-16 13:53:00
9:19 AM,73.4,64.4,73,29.94,10.0,West,11.5,-,N/A,,Mostly Cloudy,270,2013-06-16 14:19:00
9:53 AM,73.9,66.0,76,29.93,10.0,West,9.2,-,N/A,,Mostly Cloudy,260,2013-06-16 14:53:00
10:53 AM,73.9,66.0,76,29.94,10.0,WSW,10.4,-,N/A,,Overcast,250,2013-06-16 15:53:00
11:18 AM,73.4,66.2,78,29.95,10.0,West,8.1,-,N/A,,Overcast,260,2013-06-16 16:18:00
11:53 AM,75.0,66.0,73,29.93,10.0,SW,6.9,-,N/A,,Mostly Cloudy,220,2013-06-16 16:53:00
12:53 PM,77.0,66.9,71,29.93,10.0,WSW,6.9,-,N/A,,Scattered Clouds,240,2013-06-16 17:53:00
1:53 PM,79.0,66.0,64,29.93,10.0,WSW,10.4,-,N/A,,Partly Cloudy,240,2013-06-16 18:53:00
2:53 PM,79.0,66.0,64,29.93,10.0,SW,11.5,18.4,N/A,,Scattered Clouds,220,2013-06-16 19:53:00
3:53 PM,81.0,64.9,58,29.92,10.0,WSW,12.7,-,N/A,,Partly Cloudy,240,2013-06-16 20:53:00
4:53 PM,81.0,64.9,58,29.91,10.0,WSW,10.4,-,N/A,,Partly Cloudy,250,2013-06-16 21:53:00
5:53 PM,81.0,66.0,60,29.90,10.0,WSW,6.9,-,N/A,,Clear,250,2013-06-16 22:53:00
6:53 PM,80.1,66.0,62,29.90,10.0,WSW,8.1,-,N/A,,Clear,250,2013-06-16 23:53:00
7:53 PM,78.1,66.0,66,29.90,10.0,SW,4.6,-,N/A,,Clear,230,2013-06-17 00:53:00
8:53 PM,73.9,66.0,76,29.90,10.0,SSW,3.5,-,N/A,,Clear,210,2013-06-17 01:53:00
9:53 PM,72.0,64.9,78,29.91,10.0,Calm,Calm,-,N/A,,Clear,0,2013-06-17 02:53:00
10:53 PM,70.0,64.9,84,29.92,10.0,SSW,3.5,-,N/A,,Clear,200,2013-06-17 03:53:00
11:53 PM,68.0,64.9,90,29.94,10.0,Calm,Calm,-,N/A,,Clear,0,2013-06-17 04:53:00